Time;durP1;ratioP1;P1;durP2;ratioP2;P2;SDS_P1;SDS_P2;PMS_P1;PMS_P2;Temp;Humidity;BMP_temperature;BMP_pressure;BME280_temperature;BME280_humidity;BME280_pressure;Samples;Min_cycle;Max_cycle;Signal;HPM_P1;HPM_P2
2023/01/08 00:01:59;;;;;;;20.58;3.40;;;9.30;99.90;;;;;;4993304;28;20034;-47
2023/01/08 00:04:24;;;;;;;24.25;3.30;;;9.30;99.90;;;;;;4993314;28;20030;-44
2023/01/08 00:06:50;;;;;;;22.73;3.42;;;9.30;99.90;;;;;;4993099;28;20034;-45
2023/01/08 00:09:15;;;;;;;18.83;2.85;;;9.30;99.90;;;;;;4993095;28;20026;-48
2023/01/08 00:11:43;;;;;;;28.42;3.83;;;9.20;99.90;;;;;;4993365;28;20026;-46
2023/01/08 00:14:09;;;;;;;21.75;3.00;;;9.10;99.90;;;;;;4993080;28;20030;-45
2023/01/08 00:16:35;;;;;;;24.80;3.35;;;9.20;99.90;;;;;;4975592;28;20077;-46
2023/01/08 00:19:01;;;;;;;23.13;3.33;;;9.20;99.90;;;;;;4992997;28;20057;-46
2023/01/08 00:21:27;;;;;;;20.45;3.03;;;9.30;99.90;;;;;;4992847;28;20058;-45
2023/01/08 00:23:53;;;;;;;22.63;2.70;;;9.30;99.90;;;;;;4992942;28;20050;-47
2023/01/08 00:26:19;;;;;;;15.73;2.53;;;9.20;99.90;;;;;;4993042;28;20065;-45
2023/01/08 00:28:45;;;;;;;20.38;2.72;;;9.20;99.90;;;;;;4992764;28;20453;-44
2023/01/08 00:31:12;;;;;;;12.60;1.92;;;9.10;99.90;;;;;;4993053;28;20054;-44
2023/01/08 00:33:39;;;;;;;15.68;2.00;;;9.00;99.90;;;;;;4992865;28;20030;-47
2023/01/08 00:36:18;;;;;;;15.50;2.65;;;8.90;99.90;;;;;;4983036;28;20037;-44
2023/01/08 00:38:45;;;;;;;13.88;2.25;;;8.90;99.90;;;;;;4992685;28;20524;-47
2023/01/08 00:41:13;;;;;;;15.55;2.65;;;8.90;99.90;;;;;;4992673;28;20065;-51
2023/01/08 00:43:38;;;;;;;22.05;3.00;;;9.00;99.90;;;;;;4992526;28;20622;-45
2023/01/08 00:46:05;;;;;;;21.83;2.58;;;9.10;99.90;;;;;;4992476;28;20110;-44
2023/01/08 00:48:32;;;;;;;26.33;3.70;;;9.10;99.90;;;;;;4992556;28;20508;-46
2023/01/08 00:51:01;;;;;;;19.13;2.83;;;9.20;99.90;;;;;;4992217;28;20026;-46
2023/01/08 00:53:27;;;;;;;20.95;4.10;;;9.20;99.90;;;;;;4983347;28;20161;-46
2023/01/08 00:56:03;;;;;;;15.55;2.67;;;9.30;99.90;;;;;;4991693;28;20787;-45
2023/01/08 00:58:28;;;;;;;22.00;3.28;;;9.30;99.90;;;;;;4991083;28;20038;-44
2023/01/08 01:00:54;;;;;;;19.27;3.33;;;9.30;99.90;;;;;;4991557;28;20031;-45
2023/01/08 01:03:20;;;;;;;23.10;2.95;;;9.30;99.90;;;;;;4991497;28;20042;-47
2023/01/08 01:05:45;;;;;;;25.95;4.10;;;9.30;99.90;;;;;;4991422;28;20036;-44
2023/01/08 01:08:11;;;;;;;22.63;2.65;;;9.30;99.90;;;;;;4974149;28;20045;-50
2023/01/08 01:10:38;;;;;;;30.05;3.33;;;9.40;99.90;;;;;;4991593;28;20026;-48
2023/01/08 01:13:04;;;;;;;29.10;3.70;;;9.40;99.90;;;;;;4991765;28;20030;-45
2023/01/08 01:15:29;;;;;;;23.73;3.22;;;9.40;99.90;;;;;;4991677;28;20030;-45
2023/01/08 01:17:55;;;;;;;22.65;3.60;;;9.30;99.90;;;;;;4991765;28;20030;-48
2023/01/08 01:20:22;;;;;;;29.08;3.80;;;9.30;99.90;;;;;;4991726;28;20026;-45
2023/01/08 01:22:48;;;;;;;24.83;3.92;;;9.30;99.90;;;;;;4991877;28;20042;-46
2023/01/08 01:25:14;;;;;;;23.45;2.92;;;9.30;99.90;;;;;;4991762;28;20034;-44
2023/01/08 01:27:39;;;;;;;28.02;3.80;;;9.30;99.90;;;;;;4991515;28;20054;-47
2023/01/08 01:30:06;;;;;;;20.60;3.35;;;9.30;99.90;;;;;;4991440;28;20030;-44
2023/01/08 01:32:33;;;;;;;22.02;3.50;;;9.30;99.90;;;;;;4991629;28;20069;-51
2023/01/08 01:34:58;;;;;;;26.75;3.30;;;9.20;99.90;;;;;;4991764;28;20031;-47
2023/01/08 01:37:24;;;;;;;27.20;3.92;;;9.30;99.90;;;;;;4977865;28;20089;-50
2023/01/08 01:39:49;;;;;;;26.60;3.20;;;9.30;99.90;;;;;;4991582;28;20054;-49
2023/01/08 01:45:03;;;;;;;22.33;4.43;;;9.30;99.90;;;;;;4992011;28;20602;-53
2023/01/08 01:47:35;;;;;;;18.75;2.78;;;9.30;99.90;;;;;;4986484;28;20034;-49
2023/01/08 01:50:04;;;;;;;15.98;2.67;;;9.30;99.90;;;;;;4991104;28;20049;-47
2023/01/08 01:52:35;;;;;;;27.45;3.70;;;9.20;99.90;;;;;;4990230;28;20038;-46
2023/01/08 01:55:03;;;;;;;20.33;2.90;;;9.20;99.90;;;;;;4991417;28;20031;-43
2023/01/08 01:57:31;;;;;;;20.67;2.88;;;9.20;99.90;;;;;;4991046;28;20030;-51
2023/01/08 01:59:59;;;;;;;19.90;2.45;;;9.20;99.90;;;;;;4991314;28;20031;-48
2023/01/08 02:02:25;;;;;;;16.70;3.03;;;9.10;99.90;;;;;;4990554;28;20100;-43
2023/01/08 02:04:51;;;;;;;25.98;3.53;;;9.10;99.90;;;;;;4991546;28;20022;-43
2023/01/08 02:07:49;;;;;;;23.35;3.53;;;9.00;99.90;;;;;;4991512;28;20381;-42
2023/01/08 02:10:28;;;;;;;20.08;2.95;;;8.90;99.90;;;;;;4974732;28;20035;-44
2023/01/08 02:13:00;;;;;;;22.27;2.72;;;8.90;99.90;;;;;;4988134;28;20057;-48
2023/01/08 02:15:50;;;;;;;21.95;3.28;;;8.90;99.90;;;;;;4990952;28;20030;-44
2023/01/08 02:18:18;;;;;;;;;;;8.90;99.90;;;;;;4991445;28;20034;-48
2023/01/08 02:20:53;;;;;;;27.05;3.72;;;8.90;99.90;;;;;;4990927;28;19906;-51
2023/01/08 02:23:43;;;;;;;24.50;3.97;;;8.90;99.90;;;;;;4973784;28;20027;-56
2023/01/08 02:26:30;;;;;;;25.45;3.78;;;8.80;99.90;;;;;;4990927;28;20018;-45
2023/01/08 02:29:17;;;;;;;21.10;2.70;;;8.90;99.90;;;;;;4990850;28;20046;-53
2023/01/08 02:31:44;;;;;;;18.88;3.00;;;8.90;99.90;;;;;;4990932;28;20023;-50
2023/01/08 02:34:11;;;;;;;17.33;2.78;;;8.80;99.90;;;;;;4991095;28;20050;-54
2023/01/08 02:36:51;;;;;;;24.67;3.42;;;8.80;99.90;;;;;;4991106;28;20053;-52
2023/01/08 02:39:46;;;;;;;31.13;4.43;;;8.80;99.90;;;;;;4990875;28;20026;-47
2023/01/08 02:42:40;;;;;;;24.58;3.63;;;8.80;99.90;;;;;;4990520;28;20505;-46
2023/01/08 02:45:24;;;;;;;32.15;3.53;;;8.90;99.90;;;;;;4990812;28;20033;-44
2023/01/08 02:47:58;;;;;;;27.88;3.42;;;9.00;99.90;;;;;;4985518;28;20077;-53
2023/01/08 02:50:31;;;;;;;27.40;3.33;;;9.00;99.90;;;;;;4990852;28;20165;-48
2023/01/08 02:53:17;;;;;;;20.20;2.85;;;9.10;99.90;;;;;;4990689;28;20496;-48
2023/01/08 02:55:48;;;;;;;24.17;2.60;;;9.10;99.90;;;;;;4979783;28;20050;-52
2023/01/08 02:58:14;;;;;;;27.60;3.05;;;9.20;99.90;;;;;;4990926;28;20105;-51
2023/01/08 03:00:42;;;;;;;17.58;3.38;;;9.20;99.90;;;;;;4990676;28;20109;-45
2023/01/08 03:03:29;;;;;;;21.33;2.85;;;9.30;99.90;;;;;;4990130;28;20035;-50
2023/01/08 03:06:03;;;;;;;23.45;3.45;;;9.20;99.90;;;;;;4985478;28;20038;-45
2023/01/08 03:08:30;;;;;;;23.10;2.92;;;9.20;99.90;;;;;;4990577;28;20382;-51
2023/01/08 03:11:09;;;;;;;19.98;3.45;;;9.20;99.90;;;;;;4990100;28;20038;-46
2023/01/08 03:13:40;;;;;;;22.47;2.83;;;9.20;99.90;;;;;;4990656;28;20031;-45
2023/01/08 03:16:16;;;;;;;23.80;3.75;;;9.20;99.90;;;;;;4990248;28;20113;-45
2023/01/08 03:18:48;;;;;;;21.73;2.78;;;9.10;99.90;;;;;;4990085;28;20375;-45
2023/01/08 03:21:16;;;;;;;16.42;2.67;;;9.00;99.90;;;;;;4991204;28;20109;-49
2023/01/08 03:23:43;;;;;;;21.80;3.28;;;8.90;99.90;;;;;;4993653;28;20516;-47
2023/01/08 03:26:12;;;;;;;21.80;3.10;;;8.90;99.90;;;;;;4993726;28;20031;-45
2023/01/08 03:28:44;;;;;;;18.48;3.13;;;9.00;99.90;;;;;;4996056;28;20069;-47
2023/01/08 03:31:12;;;;;;;20.65;2.90;;;9.00;99.90;;;;;;4995339;28;20037;-47
2023/01/08 03:33:39;;;;;;;32.85;4.57;;;9.00;99.90;;;;;;4988082;28;20116;-47
2023/01/08 03:36:07;;;;;;;29.73;3.88;;;9.10;99.90;;;;;;5013139;28;20025;-51
2023/01/08 03:38:43;;;;;;;23.25;3.15;;;9.00;99.90;;;;;;5013394;28;20014;-49
2023/01/08 03:41:13;;;;;;;19.58;3.25;;;9.00;99.90;;;;;;5003162;28;20112;-46
2023/01/08 03:43:39;;;;;;;22.05;2.90;;;8.90;99.90;;;;;;5011620;28;20081;-45
2023/01/08 03:46:11;;;;;;;25.42;3.72;;;8.90;99.90;;;;;;5004609;28;20022;-54
2023/01/08 03:48:38;;;;;;;22.90;2.70;;;8.90;99.90;;;;;;5010368;28;20448;-45
2023/01/08 03:51:08;;;;;;;16.33;3.15;;;8.90;99.90;;;;;;5013299;28;20025;-47
2023/01/08 03:53:33;;;;;;;25.27;3.78;;;9.00;99.90;;;;;;5013039;28;20029;-47
2023/01/08 03:55:59;;;;;;;24.15;4.70;;;9.00;99.90;;;;;;5005146;28;20018;-45
2023/01/08 03:58:25;;;;;;;27.42;4.07;;;9.10;99.90;;;;;;5012933;28;20036;-44
2023/01/08 04:00:51;;;;;;;16.98;3.38;;;9.20;99.90;;;;;;5011987;28;20028;-48
2023/01/08 04:03:17;;;;;;;23.20;3.10;;;9.20;99.90;;;;;;4995358;28;20084;-44
2023/01/08 04:05:42;;;;;;;15.32;3.10;;;9.30;99.90;;;;;;5012707;28;20057;-45
2023/01/08 04:08:08;;;;;;;25.30;3.42;;;9.30;99.90;;;;;;5013070;28;20018;-53
2023/01/08 04:10:34;;;;;;;18.13;2.65;;;9.30;99.90;;;;;;5009859;28;20481;-49
2023/01/08 04:12:59;;;;;;;26.20;3.47;;;9.30;99.90;;;;;;5012748;28;20381;-47
2023/01/08 04:15:25;;;;;;;23.83;3.80;;;9.30;99.90;;;;;;5009593;28;20073;-52
2023/01/08 04:17:52;;;;;;;23.23;3.03;;;9.40;99.90;;;;;;5011734;28;20022;-46
2023/01/08 04:20:17;;;;;;;25.05;3.78;;;9.30;99.90;;;;;;5010917;28;20082;-49
2023/01/08 04:22:43;;;;;;;16.83;3.08;;;9.30;99.90;;;;;;5009863;28;20049;-46
2023/01/08 04:25:09;;;;;;;18.63;2.65;;;9.20;99.90;;;;;;5012633;28;20025;-45
2023/01/08 04:27:35;;;;;;;19.73;2.80;;;9.20;99.90;;;;;;5007671;28;20416;-50
2023/01/08 04:30:00;;;;;;;19.33;2.67;;;9.20;99.90;;;;;;5012481;28;20025;-51
2023/01/08 04:32:26;;;;;;;18.65;2.85;;;9.20;99.90;;;;;;5001998;28;20389;-45
2023/01/08 04:34:52;;;;;;;16.40;3.17;;;9.10;99.90;;;;;;4994475;28;20029;-53
2023/01/08 04:37:17;;;;;;;19.42;3.42;;;9.10;99.90;;;;;;5012381;28;20025;-47
2023/01/08 04:39:43;;;;;;;23.65;3.42;;;9.10;99.90;;;;;;5008884;28;20022;-45
2023/01/08 04:42:08;;;;;;;25.67;3.95;;;9.10;99.90;;;;;;5007034;28;20077;-46
2023/01/08 04:44:34;;;;;;;15.88;2.42;;;9.00;99.90;;;;;;5012246;28;20117;-49
2023/01/08 04:47:00;;;;;;;22.65;3.10;;;9.00;99.90;;;;;;5002221;28;20600;-50
2023/01/08 04:49:25;;;;;;;24.45;3.20;;;8.90;99.90;;;;;;5012043;28;20396;-46
2023/01/08 04:51:51;;;;;;;19.95;3.03;;;8.90;99.90;;;;;;5011956;28;20022;-46
2023/01/08 04:54:16;;;;;;;18.73;2.47;;;8.90;99.90;;;;;;5012110;28;20025;-49
2023/01/08 04:56:42;;;;;;;23.33;3.95;;;9.00;99.90;;;;;;5000430;28;20065;-48
2023/01/08 04:59:07;;;;;;;23.42;3.30;;;9.00;99.90;;;;;;5011997;28;20102;-45
2023/01/08 05:01:33;;;;;;;19.92;2.75;;;9.00;99.90;;;;;;4999666;28;20386;-45
2023/01/08 05:04:01;;;;;;;18.20;2.40;;;9.10;99.90;;;;;;5012051;28;20045;-45
2023/01/08 05:06:28;;;;;;;19.63;3.13;;;9.00;99.90;;;;;;5011862;28;20017;-50
2023/01/08 05:08:54;;;;;;;26.30;3.22;;;9.00;99.90;;;;;;5002130;28;20037;-47
2023/01/08 05:11:20;;;;;;;16.02;2.50;;;9.10;99.90;;;;;;5003586;28;20031;-46
2023/01/08 05:13:49;;;;;;;24.90;3.22;;;9.20;99.90;;;;;;5008228;28;20505;-49
2023/01/08 05:16:15;;;;;;;;;;;9.20;99.90;;;;;;5011261;28;20025;-45
2023/01/08 05:18:41;;;;;;;15.98;2.75;;;9.30;99.90;;;;;;5011365;28;19909;-54
2023/01/08 05:21:07;;;;;;;18.17;2.67;;;9.30;99.90;;;;;;5011763;28;20076;-47
2023/01/08 05:23:33;;;;;;;18.20;2.53;;;9.20;99.90;;;;;;5003050;28;20070;-50
2023/01/08 05:25:59;;;;;;;15.52;3.05;;;9.20;99.90;;;;;;5007139;28;20018;-46
2023/01/08 05:28:26;;;;;;;16.48;2.95;;;9.20;99.90;;;;;;5002810;28;20123;-44
2023/01/08 05:30:52;;;;;;;19.73;2.17;;;9.30;99.90;;;;;;5007924;28;20064;-45
2023/01/08 05:33:18;;;;;;;19.15;2.20;;;9.30;99.90;;;;;;5011704;28;20029;-44
2023/01/08 05:35:43;;;;;;;5.70;1.08;;;9.20;99.90;;;;;;4999112;28;20778;-44
2023/01/08 05:38:09;;;;;;;6.28;1.73;;;8.80;99.90;;;;;;5011265;28;20030;-48
2023/01/08 05:40:34;;;;;;;8.45;1.40;;;8.60;99.90;;;;;;5007361;28;20045;-50
2023/01/08 05:43:01;;;;;;;9.68;1.45;;;8.30;99.90;;;;;;5006474;28;20050;-52
2023/01/08 05:45:27;;;;;;;10.63;1.60;;;8.10;99.90;;;;;;5008109;28;20097;-48
2023/01/08 05:47:53;;;;;;;11.90;1.63;;;7.90;99.90;;;;;;5005051;28;20518;-45
2023/01/08 05:50:19;;;;;;;9.63;1.67;;;7.90;99.90;;;;;;5011266;28;20045;-53
2023/01/08 05:52:45;;;;;;;11.57;1.67;;;7.90;99.90;;;;;;5011187;28;20477;-45
2023/01/08 05:55:10;;;;;;;8.45;1.63;;;7.90;99.90;;;;;;5010131;28;20171;-45
2023/01/08 05:57:36;;;;;;;13.05;1.40;;;7.90;99.90;;;;;;5000714;28;20026;-47
2023/01/08 06:00:04;;;;;;;9.45;1.48;;;7.90;99.90;;;;;;5010927;28;20034;-46
2023/01/08 06:02:29;;;;;;;9.25;1.27;;;7.90;99.90;;;;;;4981278;28;20382;-46
2023/01/08 06:04:55;;;;;;;13.00;1.38;;;7.90;99.90;;;;;;5011080;28;20037;-45
2023/01/08 06:07:20;;;;;;;12.35;1.60;;;7.80;99.90;;;;;;5010890;28;20116;-45
2023/01/08 06:09:46;;;;;;;9.73;1.40;;;7.80;99.90;;;;;;5002024;28;20385;-45
2023/01/08 06:12:12;;;;;;;9.15;1.30;;;7.80;99.90;;;;;;4999176;28;20022;-45
2023/01/08 06:14:37;;;;;;;4.68;1.08;;;7.80;99.90;;;;;;5010754;28;20033;-52
2023/01/08 06:17:03;;;;;;;14.52;1.33;;;7.80;99.90;;;;;;5007599;28;20073;-46
2023/01/08 06:19:28;;;;;;;6.28;1.05;;;7.70;99.90;;;;;;5010908;28;20030;-45
2023/01/08 06:21:54;;;;;;;9.85;1.45;;;7.70;99.90;;;;;;5010873;28;20030;-47
2023/01/08 06:24:19;;;;;;;8.85;1.27;;;7.70;99.90;;;;;;5002603;28;20026;-46
2023/01/08 06:26:45;;;;;;;13.20;1.10;;;7.70;99.90;;;;;;5001664;28;20093;-51
2023/01/08 06:29:10;;;;;;;7.38;1.02;;;7.70;99.90;;;;;;4992115;28;20050;-53
2023/01/08 06:31:36;;;;;;;8.65;1.15;;;7.60;99.90;;;;;;4990715;28;20039;-46
2023/01/08 06:34:02;;;;;;;6.32;0.90;;;7.60;99.90;;;;;;4990933;28;20022;-49
2023/01/08 06:36:27;;;;;;;6.47;1.20;;;7.50;99.90;;;;;;4994403;28;20092;-51
2023/01/08 06:38:54;;;;;;;10.93;1.30;;;7.50;99.90;;;;;;5010652;28;20030;-49
2023/01/08 06:41:20;;;;;;;9.35;1.30;;;7.50;99.90;;;;;;4984817;28;20133;-44
2023/01/08 06:43:46;;;;;;;12.73;1.98;;;7.40;99.90;;;;;;4991118;28;20046;-45
2023/01/08 06:46:12;;;;;;;12.88;1.75;;;7.30;99.90;;;;;;4990862;28;20019;-45
2023/01/08 06:48:38;;;;;;;12.45;1.80;;;7.30;99.90;;;;;;4990893;28;20042;-53
2023/01/08 06:51:04;;;;;;;13.57;1.67;;;7.30;99.90;;;;;;4990856;28;20022;-47
2023/01/08 06:53:30;;;;;;;10.95;1.40;;;7.30;99.90;;;;;;4990314;28;20106;-45
2023/01/08 06:55:57;;;;;;;17.02;1.92;;;7.40;99.90;;;;;;4991904;28;20109;-45
2023/01/08 06:58:24;;;;;;;5.72;1.30;;;7.50;99.90;;;;;;4994385;28;20039;-45
2023/01/08 07:00:50;;;;;;;10.27;1.38;;;7.50;99.90;;;;;;4994398;28;20022;-45
2023/01/08 07:03:15;;;;;;;12.20;1.63;;;7.60;99.90;;;;;;4994486;28;20117;-46
2023/01/08 07:05:41;;;;;;;13.05;1.20;;;7.70;99.90;;;;;;4994528;28;20548;-51
2023/01/08 07:08:14;;;;;;;13.15;1.75;;;7.80;99.90;;;;;;4994374;28;20022;-52
2023/01/08 07:10:42;;;;;;;9.40;1.30;;;7.80;99.90;;;;;;4993961;28;20015;-46
2023/01/08 07:13:08;;;;;;;12.80;1.42;;;7.80;99.90;;;;;;4994181;28;20085;-46
2023/01/08 07:15:36;;;;;;;12.02;1.30;;;7.80;99.90;;;;;;4989804;28;20026;-48
2023/01/08 07:18:10;;;;;;;10.82;1.55;;;7.90;99.90;;;;;;4984181;28;20061;-51
2023/01/08 07:20:36;;;;;;;13.65;1.40;;;8.00;99.90;;;;;;4994073;28;20130;-48
2023/01/08 07:23:08;;;;;;;13.98;1.45;;;8.10;99.90;;;;;;4993864;28;20501;-57
2023/01/08 07:25:34;;;;;;;10.52;1.83;;;8.20;99.90;;;;;;4993810;28;20536;-47
2023/01/08 07:28:00;;;;;;;18.60;1.98;;;8.30;99.90;;;;;;4993589;28;20046;-44
2023/01/08 07:30:26;;;;;;;12.73;1.85;;;8.20;99.90;;;;;;4993629;28;20077;-46
2023/01/08 07:32:52;;;;;;;18.55;2.55;;;8.20;99.90;;;;;;4993716;28;20041;-45
2023/01/08 07:35:18;;;;;;;12.98;1.95;;;8.20;99.90;;;;;;4993942;28;20022;-46
2023/01/08 07:37:44;;;;;;;11.50;1.58;;;8.20;99.90;;;;;;5007389;28;20025;-46
2023/01/08 07:40:10;;;;;;;14.93;2.10;;;8.20;99.90;;;;;;5012460;28;20443;-49
2023/01/08 07:42:37;;;;;;;21.50;3.03;;;8.20;99.90;;;;;;5005677;28;20038;-45
2023/01/08 07:45:03;;;;;;;17.42;2.58;;;8.30;99.90;;;;;;5013256;28;20062;-45
2023/01/08 07:47:29;;;;;;;21.30;2.65;;;8.30;99.90;;;;;;4994452;28;20774;-48
2023/01/08 07:49:54;;;;;;;22.17;3.13;;;8.40;99.90;;;;;;5009518;28;20105;-43
2023/01/08 07:52:20;;;;;;;17.88;3.13;;;8.50;99.90;;;;;;5013178;28;20010;-45
2023/01/08 07:54:46;;;;;;;14.13;2.63;;;8.50;99.90;;;;;;5013145;28;20073;-53
2023/01/08 07:57:11;;;;;;;18.60;2.38;;;8.60;99.90;;;;;;5003837;28;20014;-45
2023/01/08 07:59:37;;;;;;;16.17;2.75;;;8.60;99.90;;;;;;5011491;28;20034;-45
2023/01/08 08:02:02;;;;;;;18.52;2.33;;;8.60;99.90;;;;;;4998505;28;20125;-47
2023/01/08 08:04:28;;;;;;;21.15;3.67;;;8.50;99.90;;;;;;5013079;28;20417;-45
2023/01/08 08:06:54;;;;;;;22.08;2.67;;;8.50;99.90;;;;;;5001449;28;20034;-45
2023/01/08 08:09:19;;;;;;;13.68;2.75;;;8.60;99.90;;;;;;5008337;28;20103;-46
2023/01/08 08:11:45;;;;;;;15.38;2.45;;;8.60;99.90;;;;;;5012847;28;20018;-50
2023/01/08 08:14:11;;;;;;;18.95;2.83;;;8.70;99.90;;;;;;5010992;28;20030;-48
2023/01/08 08:16:36;;;;;;;23.38;2.88;;;8.80;99.90;;;;;;4994982;28;20026;-50
2023/01/08 08:19:02;;;;;;;21.88;3.15;;;8.80;99.90;;;;;;4992815;28;20465;-49
2023/01/08 08:21:29;;;;;;;18.27;2.55;;;8.80;99.90;;;;;;4992855;28;20133;-47
2023/01/08 08:23:55;;;;;;;23.70;2.88;;;8.90;99.90;;;;;;4993091;28;20041;-50
2023/01/08 08:26:21;;;;;;;24.08;2.85;;;8.90;99.90;;;;;;4992826;28;20031;-49
2023/01/08 08:28:47;;;;;;;20.65;2.85;;;8.90;99.90;;;;;;4992540;28;20047;-46
2023/01/08 08:31:12;;;;;;;24.88;2.90;;;8.90;99.90;;;;;;4992697;28;20109;-44
2023/01/08 08:33:38;;;;;;;20.85;4.80;;;9.00;99.90;;;;;;4992703;28;20068;-46
2023/01/08 08:36:04;;;;;;;24.85;3.53;;;9.20;99.90;;;;;;4992737;28;20438;-48
2023/01/08 08:38:30;;;;;;;22.38;3.00;;;9.30;99.90;;;;;;5012323;28;20105;-45
2023/01/08 08:40:55;;;;;;;26.58;3.28;;;9.30;99.90;;;;;;5005653;28;20034;-45
2023/01/08 08:43:21;;;;;;;19.92;2.95;;;9.30;99.90;;;;;;4991981;28;20046;-44
2023/01/08 08:45:47;;;;;;;18.85;3.88;;;9.60;99.90;;;;;;4993526;28;20046;-48
2023/01/08 08:48:14;;;;;;;20.08;2.90;;;9.90;99.90;;;;;;5000165;28;20033;-45
2023/01/08 08:50:40;;;;;;;19.58;3.10;;;10.10;99.90;;;;;;4995334;28;20038;-45
2023/01/08 08:53:06;;;;;;;15.63;2.80;;;10.10;99.90;;;;;;4992090;28;20026;-45
2023/01/08 08:55:32;;;;;;;21.20;2.58;;;10.30;99.90;;;;;;4991943;28;20045;-45
2023/01/08 08:58:06;;;;;;;17.40;2.40;;;10.50;99.90;;;;;;4992367;28;20375;-44
2023/01/08 09:00:32;;;;;;;19.67;2.42;;;10.40;99.90;;;;;;4987220;28;20027;-49
2023/01/08 09:02:57;;;;;;;18.02;2.22;;;10.30;99.90;;;;;;4983936;28;20502;-47
2023/01/08 09:05:23;;;;;;;16.30;2.45;;;10.10;99.90;;;;;;4988413;28;20029;-50
2023/01/08 09:07:49;;;;;;;21.05;2.92;;;10.00;99.90;;;;;;4989397;28;20375;-58
2023/01/08 09:10:15;;;;;;;19.80;2.67;;;9.80;99.90;;;;;;4991456;28;20092;-56
2023/01/08 09:12:41;;;;;;;25.70;3.20;;;9.70;99.90;;;;;;4991166;28;20070;-54
2023/01/08 09:15:07;;;;;;;20.35;2.85;;;9.60;99.90;;;;;;4988881;28;20050;-44
2023/01/08 09:17:33;;;;;;;22.63;2.60;;;9.60;99.90;;;;;;4991426;28;20124;-50
2023/01/08 09:19:58;;;;;;;19.60;2.92;;;9.60;99.90;;;;;;4991698;28;20463;-48
2023/01/08 09:22:24;;;;;;;22.05;2.92;;;9.70;99.90;;;;;;4991725;28;20038;-48
2023/01/08 09:24:50;;;;;;;18.25;2.50;;;9.70;99.90;;;;;;4983098;28;20382;-48
2023/01/08 09:27:15;;;;;;;25.98;3.22;;;9.70;99.90;;;;;;4991350;28;20038;-50
2023/01/08 09:29:41;;;;;;;21.33;2.80;;;9.70;99.90;;;;;;4991472;28;20101;-45
2023/01/08 09:32:08;;;;;;;23.80;3.55;;;9.70;99.90;;;;;;4991593;28;20030;-47
2023/01/08 09:34:35;;;;;;;19.65;2.45;;;9.60;99.90;;;;;;4991045;28;20022;-45
2023/01/08 09:37:01;;;;;;;17.55;3.00;;;9.60;99.90;;;;;;4999216;28;20482;-46
2023/01/08 09:39:26;;;;;;;18.35;2.95;;;9.60;99.90;;;;;;5011210;28;20477;-48
2023/01/08 09:41:54;;;;;;;26.48;3.13;;;9.70;99.90;;;;;;5005578;28;20032;-45
2023/01/08 09:44:28;;;;;;;10.98;1.98;;;9.90;99.90;;;;;;4996899;28;20039;-45
2023/01/08 09:46:54;;;;;;;21.02;2.40;;;10.20;99.90;;;;;;4994773;28;20029;-45
2023/01/08 09:49:41;;;;;;;24.23;3.38;;;10.30;99.90;;;;;;4983084;28;20450;-47
2023/01/08 09:52:13;;;;;;;21.85;2.83;;;10.30;99.90;;;;;;4987739;28;20037;-45
2023/01/08 09:54:40;;;;;;;15.40;3.10;;;10.20;99.90;;;;;;4991321;28;20117;-45
2023/01/08 09:57:11;;;;;;;22.33;3.28;;;10.30;99.90;;;;;;4990871;28;20030;-44
2023/01/08 09:59:37;;;;;;;20.90;3.00;;;10.20;99.90;;;;;;4990711;28;20034;-52
2023/01/08 10:02:03;;;;;;;25.17;2.60;;;10.20;99.90;;;;;;4990595;28;20030;-45
2023/01/08 10:04:29;;;;;;;16.55;2.38;;;10.30;99.90;;;;;;4991019;28;20034;-45
2023/01/08 10:07:10;;;;;;;16.13;2.63;;;10.30;99.90;;;;;;4991169;28;20057;-47
2023/01/08 10:09:36;;;;;;;16.25;2.60;;;10.30;99.90;;;;;;4982122;28;20034;-47
2023/01/08 10:12:04;;;;;;;17.83;2.70;;;10.70;99.90;;;;;;4987317;28;20444;-50
2023/01/08 10:14:38;;;;;;;16.75;2.60;;;11.00;99.90;;;;;;4989402;28;20061;-48
2023/01/08 10:17:13;;;;;;;16.80;2.78;;;11.90;99.90;;;;;;4988784;28;20088;-48
2023/01/08 10:19:39;;;;;;;15.35;2.45;;;12.20;99.90;;;;;;4988938;28;20041;-49
2023/01/08 10:22:15;;;;;;;16.35;2.92;;;11.70;99.90;;;;;;4971089;28;20022;-47
2023/01/08 10:24:42;;;;;;;13.70;2.53;;;11.30;99.90;;;;;;4986749;28;20031;-48
2023/01/08 10:27:10;;;;;;;20.73;2.50;;;10.90;99.90;;;;;;4988799;28;20030;-56
2023/01/08 10:29:38;;;;;;;14.13;2.27;;;10.50;99.90;;;;;;4990452;28;20123;-45
2023/01/08 10:32:27;;;;;;;23.33;3.20;;;10.40;99.90;;;;;;4994107;28;20105;-50
2023/01/08 10:34:56;;;;;;;23.00;3.78;;;10.40;99.90;;;;;;4994630;28;20023;-49
2023/01/08 10:37:30;;;;;;;15.13;2.25;;;10.60;99.90;;;;;;5005111;28;20034;-54
2023/01/08 10:40:16;;;;;;;18.00;2.35;;;10.80;99.90;;;;;;5007195;28;20022;-45
2023/01/08 10:42:42;;;;;;;17.38;2.50;;;10.70;99.90;;;;;;4989850;28;20070;-43
2023/01/08 10:45:20;;;;;;;22.45;3.25;;;10.60;99.90;;;;;;4993885;28;20042;-45
2023/01/08 10:47:48;;;;;;;21.90;3.25;;;10.90;99.90;;;;;;4994306;28;20069;-46
2023/01/08 10:50:34;;;;;;;17.40;3.03;;;11.00;99.90;;;;;;4994161;28;20325;-50
2023/01/08 10:53:02;;;;;;;17.77;2.35;;;11.20;99.90;;;;;;4977821;28;20035;-49
2023/01/08 10:55:36;;;;;;;17.42;2.78;;;10.90;99.90;;;;;;4976501;28;20706;-48
2023/01/08 10:58:07;;;;;;;17.25;2.60;;;10.80;99.90;;;;;;4968047;28;20508;-51
2023/01/08 11:00:35;;;;;;;15.82;3.15;;;10.80;99.90;;;;;;4988299;28;20081;-46
2023/01/08 11:03:04;;;;;;;22.08;2.72;;;11.00;99.90;;;;;;4984681;28;20137;-45
2023/01/08 11:05:36;;;;;;;16.92;2.90;;;11.00;99.90;;;;;;4985784;28;20034;-48
2023/01/08 11:08:06;;;;;;;20.45;3.35;;;10.90;99.90;;;;;;4983594;28;20121;-53
2023/01/08 11:10:33;;;;;;;22.73;3.10;;;11.00;99.90;;;;;;4983061;28;20500;-45
2023/01/08 11:13:03;;;;;;;17.23;2.45;;;11.10;99.90;;;;;;4986178;28;20066;-49
2023/01/08 11:15:39;;;;;;;20.30;2.85;;;12.00;99.90;;;;;;4983899;28;20034;-46
2023/01/08 11:18:24;;;;;;;19.55;2.83;;;12.00;99.90;;;;;;4981536;28;20082;-46
2023/01/08 11:20:51;;;;;;;14.65;2.67;;;11.60;99.90;;;;;;4987246;28;20030;-45
2023/01/08 11:23:23;;;;;;;21.40;3.58;;;11.50;99.90;;;;;;4975704;28;20038;-46
2023/01/08 11:25:52;;;;;;;23.40;2.95;;;11.00;99.90;;;;;;4982925;28;20072;-45
2023/01/08 11:28:39;;;;;;;16.17;2.47;;;10.70;99.90;;;;;;4978538;28;20465;-47
2023/01/08 11:31:17;;;;;;;19.30;2.55;;;10.70;99.90;;;;;;4984500;28;20113;-45
2023/01/08 11:33:46;;;;;;;17.90;2.78;;;11.10;99.90;;;;;;4983765;28;20113;-45
2023/01/08 11:36:33;;;;;;;27.27;3.33;;;11.40;99.90;;;;;;4992194;28;20408;-52
2023/01/08 11:39:00;;;;;;;19.88;3.22;;;12.40;99.90;;;;;;4985806;28;20557;-49
2023/01/08 11:41:57;;;;;;;20.80;3.17;;;12.90;99.90;;;;;;4989616;28;20081;-44
2023/01/08 11:45:01;;;;;;;17.17;3.75;;;12.80;99.90;;;;;;4979764;28;20054;-46
2023/01/08 11:48:18;;;;;;;16.38;2.88;;;12.70;99.90;;;;;;4976834;28;20046;-44
2023/01/08 11:50:54;;;;;;;24.48;2.75;;;12.40;99.90;;;;;;4955995;28;20034;-51
2023/01/08 11:53:51;;;;;;;21.27;4.43;;;12.10;99.90;;;;;;4989474;28;20046;-47
2023/01/08 11:56:50;;;;;;;20.38;3.38;;;12.00;99.90;;;;;;4960145;28;20068;-48
2023/01/08 11:59:34;;;;;;;19.83;3.05;;;11.70;99.90;;;;;;4990872;28;20149;-48
2023/01/08 12:02:11;;;;;;;27.35;3.47;;;11.60;99.90;;;;;;4991778;28;20026;-46
2023/01/08 12:04:55;;;;;;;20.38;3.45;;;11.80;99.90;;;;;;4992092;28;20034;-47
2023/01/08 12:07:48;;;;;;;19.15;3.00;;;11.90;99.90;;;;;;4991183;28;20053;-48
2023/01/08 12:10:25;;;;;;;11.52;2.17;;;12.20;99.90;;;;;;4988426;28;20061;-49
2023/01/08 12:12:53;;;;;;;16.95;2.42;;;12.90;99.90;;;;;;4993284;28;20034;-48
2023/01/08 12:15:37;;;;;;;20.88;2.78;;;13.30;99.90;;;;;;4992153;28;20498;-50
2023/01/08 12:18:22;;;;;;;14.85;3.35;;;13.50;99.90;;;;;;4973722;28;20122;-49
2023/01/08 12:21:07;;;;;;;20.30;3.25;;;13.20;99.90;;;;;;4990727;28;20032;-46
2023/01/08 12:23:38;;;;;;;18.02;2.40;;;13.10;99.90;;;;;;4990476;28;20038;-45
2023/01/08 12:26:16;;;;;;;17.95;3.10;;;13.50;99.90;;;;;;4991013;28;20483;-49
2023/01/08 12:28:54;;;;;;;15.57;2.85;;;13.90;99.90;;;;;;4990882;28;20111;-49
2023/01/08 12:31:19;;;;;;;19.45;2.90;;;13.90;99.90;;;;;;4990628;28;20018;-48
2023/01/08 12:33:48;;;;;;;19.50;3.10;;;13.60;99.90;;;;;;4986351;28;20489;-51
2023/01/08 12:36:19;;;;;;;16.80;2.58;;;13.00;99.90;;;;;;4976637;28;20026;-46
2023/01/08 12:38:53;;;;;;;21.75;2.92;;;12.50;99.90;;;;;;5012764;28;20076;-46
2023/01/08 12:41:19;;;;;;;18.90;3.00;;;12.10;99.90;;;;;;5012444;28;20057;-49
2023/01/08 12:44:01;;;;;;;19.95;2.92;;;11.80;99.90;;;;;;5013558;28;20465;-46
2023/01/08 12:46:33;;;;;;;18.67;2.10;;;11.60;99.90;;;;;;4997038;28;20120;-46
2023/01/08 12:49:01;;;;;;;17.77;2.85;;;11.20;99.90;;;;;;4977334;28;20482;-47
2023/01/08 12:51:51;;;;;;;13.52;2.38;;;11.00;99.90;;;;;;4991381;28;20038;-44
2023/01/08 12:54:38;;;;;;;18.10;2.70;;;10.90;99.90;;;;;;4984750;28;20018;-49
2023/01/08 12:57:10;;;;;;;22.02;2.78;;;10.80;99.90;;;;;;4991833;28;20030;-48
2023/01/08 13:00:06;;;;;;;13.23;2.30;;;10.70;99.90;;;;;;4991898;28;20102;-44
2023/01/08 13:02:43;;;;;;;10.55;2.05;;;10.60;99.90;;;;;;4991782;28;20556;-44